Overview Statistics Trail Chart Weather Telemetry Raw packets
 

This is the latest recevied weather packets stored in our database for station/object IZ4MEH-10. If no packets are shown the sender has not sent any weather packets the latest 10 day(s).

<< 1 2 3 4 5 6 >>
Time Temp. Humidity Pressure Rain* Wind** Luminosity Snow
1788438205 35.56° C 36% 1015.4 hPa - - - -
1788436404 36.67° C 36% 1015.5 hPa - - - -
1788432802 38.33° C 34% 1016.1 hPa - - - -
1788431001 46.11° C 25% 1016.3 hPa - - - -
1788429208 44.44° C 27% 1016.7 hPa - - - -
1788427400 44.44° C 27% 1017.3 hPa - - - -
1788425599 43.33° C 28% 1017.4 hPa - - - -
1788423806 42.22° C 30% 1017.3 hPa - - - -
1788422005 41.11° C 32% 1017.1 hPa - - - -
1788420204 40.56° C 32% 1016.9 hPa - - - -
1788418403 38.33° C 35% 1016.8 hPa - - - -
1788416603 35° C 41% 1017 hPa - - - -
1788414794 30.56° C 51% 1016.8 hPa - - - -
1788413001 26.11° C 61% 1016.5 hPa - - - -
1788411200 23.33° C 67% 1016.2 hPa - - - -
1788409391 23.89° C 63% 1016 hPa - - - -
1788398594 24.44° C 62% 1015.7 hPa - - - -
1788396793 26.11° C 57% 1015.6 hPa - - - -
1788384203 27.78° C 53% 1014.8 hPa - - - -
1788382387 27.78° C 51% 1014.7 hPa - - - -
1788380586 28.33° C 50% 1014.4 hPa - - - -
1788375175 29.44° C 48% 1013.9 hPa - - - -
1788371584 31.11° C 44% 1013.3 hPa - - - -
1788369773 33.33° C 42% 1013 hPa - - - -
1788364370 35° C 34% 1013.1 hPa - - - -

* Rain since midnight (hover to see other rain measurements)
** Current wind speed in m/s (hover to see current wind gust speed)